YPAD Airport Information

Runway Information
Runway 05 Length 10171 ft width 148 ft
Elevation 14 ft Threshold 493 ft Heading 50
Runway 23 Length 10171 ft Width 148 ft
Elevation 20 ft Threshold 0 ft Heading 230
Runway 12 Length 5420 ft width 148 ft
Elevation 14 ft Threshold 0 ft Heading 124
Runway 30 Length 5420 ft Width 148 ft
Elevation 14 ft Threshold 0 ft Heading 304
Airport Frequencies
Type A/D Name APP/DEP Frequency 118.2 MHZ
Type ATIS Name ATIS Frequency 116.4 MHZ
Type CLD Name CLNC DEL Frequency 126.1 MHZ
Type GND Name GND Frequency 121.7 MHZ
Type TWR Name TWR Frequency 120.5 MHZ
Airport Navaids
Type VOR-DME Name Adelaide Frequency 116400 KHZ
Type NDB Name Adelaide Frequency 362 KHZ
Type NDB Name Modbury Frequency 377 KHZ
Airport Weather Information & NOTAM
ADDS - METARS form results

(1455 UTC 22 July 2018)
 
METAR text: YPAD 221430Z AUTO 02015KT 9999 // SCT105 16/M01 Q1009
Conditions at: YPAD (ADELAIDE INTL AR, AU) observed 1430 UTC 22 July 2018
Temperature: 16.0°C (61°F)
Dewpoint: -1.0°C (30°F) [RH = 31%]
Pressure (altimeter): 29.79 inches Hg (1009.0 mb)
Winds: from the NNE (20 degrees) at 17 MPH (15 knots; 7.8 m/s)
Visibility: 6 or more miles (10+ km)
Ceiling: at least 12,000 feet AGL
Clouds: scattered clouds at 10500 feet AGL
Weather: no significant weather observed at this time

METAR text: YPAD 221400Z 03015KT //// // ////// 16/M01 Q1009 CLD:CLR BLW 125 VIS:9999 FM1400 02018KT 9999 -SHRA NSC
Conditions at: YPAD (ADELAIDE INTL AR, AU) observed 1400 UTC 22 July 2018
Temperature: 16.0°C (61°F)
Dewpoint: -1.0°C (30°F) [RH = 31%]
Pressure (altimeter): 29.79 inches Hg (1009.0 mb)
Winds: from the NNE (30 degrees) at 17 MPH (15 knots; 7.8 m/s)
Visibility: 6 or more miles (10+ km)
Ceiling: at least 12,000 feet AGL
Clouds: sky clear below 12,000 feet AGL
Weather: no significant weather observed at this time